Terminal Aerodrome Forecast
Issued by NWS

Home | Current Version | Previous Version | Text Only | Print | Product List | Glossary Off
Versions: 1 2 3 4 5 6 7 8 9 10 11 12 13 14 15 16 17 18 19 20

000
FTUS43 KMPX 150500
TAFAXN
TAF
KAXN 150524Z 1506/1606 34004KT P6SM SKC
     FM151900 15008KT P6SM BKN120
     FM152200 15012KT P6SM OVC080
     FM160300 14014G20KT P6SM VCSH SCT030 OVC060=

USA.gov is the U.S. government's official web portal to all federal, state and local government web resources and services.